createdAt,value
2022-11-29T00:01:24.450Z,28.42
2022-11-29T00:03:54.073Z,31.00
2022-11-29T00:06:27.268Z,25.70
2022-11-29T00:08:59.905Z,14.50
2022-11-29T00:11:48.179Z,16.92
2022-11-29T00:14:17.704Z,13.43
2022-11-29T00:16:44.663Z,17.73
2022-11-29T00:19:13.641Z,13.68
2022-11-29T00:21:40.405Z,14.40
2022-11-29T00:24:07.573Z,13.40
2022-11-29T00:26:39.730Z,10.95
2022-11-29T00:29:09.953Z,12.15
2022-11-29T00:31:36.742Z,11.43
2022-11-29T00:34:07.064Z,16.77
2022-11-29T00:36:35.441Z,16.25
2022-11-29T00:39:05.124Z,14.23
2022-11-29T00:41:34.573Z,12.15
2022-11-29T00:44:03.571Z,13.60
2022-11-29T00:46:30.465Z,34.78
2022-11-29T00:48:59.318Z,35.78
2022-11-29T00:51:28.596Z,37.90
2022-11-29T00:53:55.306Z,41.42
2022-11-29T00:56:24.509Z,28.75
2022-11-29T00:58:53.543Z,13.05
2022-11-29T01:01:20.366Z,27.58
2022-11-29T01:03:49.554Z,24.75
2022-11-29T01:06:19.160Z,49.75
2022-11-29T01:08:46.463Z,77.22
2022-11-29T01:11:20.303Z,28.67
2022-11-29T01:13:47.349Z,32.65
2022-11-29T01:16:15.501Z,33.53
2022-11-29T01:18:45.576Z,94.07
2022-11-29T01:21:20.654Z,84.57
2022-11-29T01:23:48.838Z,120.38
2022-11-29T01:26:24.457Z,106.10
2022-11-29T01:28:55.120Z,114.40
2022-11-29T01:31:25.242Z,49.30
2022-11-29T01:33:59.640Z,34.65
2022-11-29T01:36:27.090Z,39.03
2022-11-29T01:38:56.475Z,20.20
2022-11-29T01:41:25.833Z,37.03
2022-11-29T01:44:06.993Z,69.72
2022-11-29T01:46:39.289Z,35.90
2022-11-29T01:49:12.884Z,23.83
2022-11-29T01:51:49.922Z,25.23
2022-11-29T01:54:17.684Z,26.17
2022-11-29T01:56:46.400Z,21.90
2022-11-29T01:59:19.085Z,74.78
2022-11-29T02:01:46.029Z,43.25
2022-11-29T02:04:13.852Z,20.67
2022-11-29T02:06:42.409Z,28.05
2022-11-29T02:09:19.843Z,28.00
2022-11-29T02:11:57.570Z,27.90
2022-11-29T02:14:54.776Z,26.85
2022-11-29T02:17:47.156Z,27.27
2022-11-29T02:20:29.055Z,23.02
2022-11-29T02:26:02.291Z,20.15
2022-11-29T02:29:06.416Z,50.78
2022-11-29T02:31:57.497Z,38.78
2022-11-29T02:34:51.928Z,19.58
2022-11-29T02:37:55.184Z,18.80
2022-11-29T02:40:54.091Z,19.45
2022-11-29T02:43:37.403Z,52.17
2022-11-29T02:46:23.119Z,54.03
2022-11-29T02:48:55.873Z,19.65
2022-11-29T02:52:02.331Z,31.58
2022-11-29T02:54:58.323Z,29.02
2022-11-29T02:57:50.278Z,67.95
2022-11-29T03:00:20.969Z,81.10
2022-11-29T03:03:08.772Z,45.83
2022-11-29T03:05:57.173Z,31.38
2022-11-29T03:08:32.036Z,32.20
2022-11-29T03:11:34.534Z,28.80
2022-11-29T03:14:24.021Z,50.33
2022-11-29T03:17:16.735Z,23.60
2022-11-29T03:19:53.081Z,48.30
2022-11-29T03:22:31.555Z,36.60
2022-11-29T03:25:34.393Z,38.78
2022-11-29T03:28:07.956Z,21.63
2022-11-29T03:30:38.777Z,15.38
2022-11-29T03:33:24.648Z,32.60
2022-11-29T03:36:31.928Z,24.35
2022-11-29T03:39:03.706Z,38.78
2022-11-29T03:44:00.260Z,32.83
2022-11-29T03:46:35.099Z,18.42
2022-11-29T03:49:07.796Z,43.15
2022-11-29T03:52:08.175Z,31.73
2022-11-29T03:54:46.660Z,37.72
2022-11-29T03:57:18.145Z,21.38
2022-11-29T04:00:10.312Z,26.15
2022-11-29T04:02:51.842Z,25.73
2022-11-29T04:05:27.884Z,80.00
2022-11-29T04:08:01.082Z,61.58
2022-11-29T04:10:47.239Z,59.97
2022-11-29T04:13:45.032Z,22.05
2022-11-29T04:16:14.631Z,37.25
2022-11-29T04:19:06.679Z,80.65
2022-11-29T04:24:03.108Z,20.20
2022-11-29T04:26:54.801Z,29.90
2022-11-29T04:29:46.920Z,38.03
2022-11-29T04:33:10.160Z,30.77
2022-11-29T04:35:43.009Z,50.63
2022-11-29T04:38:34.270Z,28.25
2022-11-29T04:41:19.899Z,21.40
2022-11-29T04:43:57.889Z,48.00
2022-11-29T04:46:45.902Z,33.17
2022-11-29T04:49:43.561Z,45.85
2022-11-29T04:52:31.173Z,33.10
2022-11-29T04:55:11.731Z,49.85
2022-11-29T04:58:12.943Z,51.85
2022-11-29T05:01:04.152Z,29.02
2022-11-29T05:03:42.230Z,26.02
2022-11-29T05:06:34.589Z,47.25
2022-11-29T05:09:25.013Z,37.03
2022-11-29T05:12:08.891Z,29.38
2022-11-29T05:14:56.537Z,45.05
2022-11-29T05:17:58.113Z,49.78
2022-11-29T05:21:04.810Z,61.63
2022-11-29T05:24:08.578Z,23.58
2022-11-29T05:26:57.579Z,25.85
2022-11-29T05:29:42.162Z,52.78
2022-11-29T05:32:33.651Z,44.58
2022-11-29T05:35:27.655Z,51.28
2022-11-29T05:38:28.697Z,61.85
2022-11-29T05:41:34.863Z,70.85
2022-11-29T05:44:21.560Z,59.17
2022-11-29T05:47:02.540Z,49.42
2022-11-29T05:49:58.204Z,41.73
2022-11-29T05:52:29.074Z,60.22
2022-11-29T05:55:25.088Z,42.00
2022-11-29T05:57:59.103Z,44.88
2022-11-29T06:00:34.722Z,41.85
2022-11-29T06:03:14.055Z,44.95
2022-11-29T06:06:00.654Z,35.88
2022-11-29T06:08:46.600Z,33.38
2022-11-29T06:11:27.665Z,52.78
2022-11-29T06:14:14.436Z,48.23
2022-11-29T06:16:56.964Z,40.72
2022-11-29T06:19:45.268Z,37.70
2022-11-29T06:22:43.829Z,63.70
2022-11-29T06:25:39.352Z,62.88
2022-11-29T06:28:23.327Z,37.03
2022-11-29T06:31:08.533Z,33.88
2022-11-29T06:33:43.642Z,41.40
2022-11-29T06:36:23.126Z,36.60
2022-11-29T06:38:52.474Z,43.47
2022-11-29T06:41:22.363Z,40.20
2022-11-29T06:43:49.542Z,28.65
2022-11-29T06:46:39.512Z,27.60
2022-11-29T06:49:12.902Z,38.80
2022-11-29T06:52:04.094Z,43.70
2022-11-29T06:54:33.010Z,36.27
2022-11-29T06:57:14.097Z,33.33
2022-11-29T06:59:54.313Z,32.27
2022-11-29T07:02:55.764Z,38.90
2022-11-29T07:05:32.662Z,30.73
2022-11-29T07:08:18.679Z,31.30
2022-11-29T07:10:49.389Z,29.95
2022-11-29T07:13:17.900Z,35.50
2022-11-29T07:16:07.343Z,37.78
2022-11-29T07:19:01.509Z,31.92
2022-11-29T07:21:54.229Z,33.00
2022-11-29T07:24:58.692Z,40.25
2022-11-29T07:27:52.333Z,49.42
2022-11-29T07:30:33.690Z,38.72
2022-11-29T07:33:34.337Z,36.28
2022-11-29T07:36:34.262Z,36.80
2022-11-29T07:39:12.858Z,36.03
2022-11-29T07:41:48.419Z,40.45
2022-11-29T07:44:44.687Z,46.55
2022-11-29T07:47:11.559Z,37.15
2022-11-29T07:49:38.275Z,65.35
2022-11-29T07:52:05.011Z,46.20
2022-11-29T07:54:31.824Z,51.35
2022-11-29T07:56:58.507Z,40.25
2022-11-29T07:59:25.186Z,47.25
2022-11-29T08:01:51.932Z,70.85
2022-11-29T08:04:18.722Z,66.57
2022-11-29T08:06:47.981Z,59.47
2022-11-29T08:09:14.666Z,56.03
2022-11-29T08:11:41.357Z,59.28
2022-11-29T08:14:08.293Z,36.33
2022-11-29T08:16:36.211Z,45.63
2022-11-29T08:19:03.189Z,35.65
2022-11-29T08:21:29.907Z,30.65
2022-11-29T08:23:56.641Z,52.63
2022-11-29T08:26:26.903Z,42.50
2022-11-29T08:28:57.861Z,53.33
2022-11-29T08:31:24.750Z,49.25
2022-11-29T08:33:51.563Z,58.92
2022-11-29T08:36:20.055Z,55.90
2022-11-29T08:38:47.364Z,83.75
2022-11-29T08:41:16.368Z,45.17
2022-11-29T08:43:44.206Z,63.50
2022-11-29T08:46:15.304Z,47.00
2022-11-29T08:48:45.462Z,66.05
2022-11-29T08:51:12.213Z,48.50
2022-11-29T08:53:41.760Z,85.40
2022-11-29T08:57:04.458Z,88.88
2022-11-29T08:59:05.783Z,87.10
2022-11-29T09:01:32.593Z,61.95
2022-11-29T09:03:59.487Z,57.97
2022-11-29T09:06:49.654Z,119.32
2022-11-29T09:09:17.169Z,108.80
2022-11-29T09:11:48.223Z,111.95
2022-11-29T09:14:17.762Z,60.00
2022-11-29T09:16:44.586Z,71.82
2022-11-29T09:19:14.576Z,53.20
2022-11-29T09:21:41.536Z,60.38
2022-11-29T09:24:09.282Z,38.50
2022-11-29T09:26:38.073Z,46.47
2022-11-29T09:29:06.690Z,60.03
2022-11-29T09:31:35.055Z,58.65
2022-11-29T09:34:02.193Z,110.50
2022-11-29T09:36:30.428Z,63.58
2022-11-29T09:38:58.455Z,70.93
2022-11-29T09:41:47.026Z,39.90
2022-11-29T09:44:30.551Z,62.75
2022-11-29T09:47:16.340Z,50.22
2022-11-29T09:50:18.826Z,113.75
2022-11-29T09:52:57.540Z,116.57
2022-11-29T09:55:24.310Z,203.43
2022-11-29T09:57:53.656Z,66.88
2022-11-29T10:00:20.955Z,124.25
2022-11-29T10:02:57.006Z,120.28
2022-11-29T10:05:30.277Z,62.13
2022-11-29T10:08:35.426Z,53.08
2022-11-29T10:11:17.891Z,83.45
2022-11-29T10:13:50.767Z,127.13
2022-11-29T10:16:43.978Z,66.43
2022-11-29T10:19:28.363Z,249.98
2022-11-29T10:22:04.466Z,84.95
2022-11-29T10:24:34.360Z,179.55
2022-11-29T10:27:01.299Z,80.70
2022-11-29T10:29:28.036Z,150.98
2022-11-29T10:31:56.832Z,51.55
2022-11-29T10:34:25.843Z,103.80
2022-11-29T10:36:54.526Z,145.35
2022-11-29T10:39:58.650Z,72.93
2022-11-29T10:42:46.596Z,60.38
2022-11-29T10:45:28.600Z,37.80
2022-11-29T10:48:01.892Z,40.38
2022-11-29T10:50:32.271Z,40.88
2022-11-29T10:53:17.019Z,38.42
2022-11-29T10:55:59.045Z,39.10
2022-11-29T10:58:33.612Z,40.88
2022-11-29T11:01:08.373Z,40.08
2022-11-29T11:03:54.577Z,35.20
2022-11-29T11:06:43.691Z,40.80
2022-11-29T11:09:47.448Z,33.78
2022-11-29T11:12:14.183Z,35.97
2022-11-29T11:14:45.238Z,35.80
2022-11-29T11:17:26.333Z,41.47
2022-11-29T11:20:00.944Z,33.97
2022-11-29T11:22:32.885Z,37.38
2022-11-29T11:25:06.917Z,37.80
2022-11-29T11:27:41.556Z,47.13
2022-11-29T11:30:29.311Z,47.10
2022-11-29T11:33:29.763Z,44.53
2022-11-29T11:36:13.712Z,45.38
2022-11-29T11:38:53.846Z,87.28
2022-11-29T11:41:23.745Z,54.83
2022-11-29T11:43:57.196Z,74.07
2022-11-29T11:46:46.265Z,59.60
2022-11-29T11:49:14.087Z,47.10
2022-11-29T11:51:44.017Z,50.88
2022-11-29T11:54:15.429Z,71.78
2022-11-29T11:56:42.591Z,117.20
2022-11-29T11:59:20.094Z,124.82
2022-11-29T12:01:46.894Z,169.02
2022-11-29T12:04:32.693Z,65.40
2022-11-29T12:07:09.626Z,65.57
2022-11-29T12:09:43.162Z,71.80
2022-11-29T12:12:20.145Z,67.53
2022-11-29T12:14:57.532Z,62.33
2022-11-29T12:17:54.831Z,176.30
2022-11-29T12:20:30.449Z,251.98
2022-11-29T12:23:09.420Z,193.88
2022-11-29T12:25:59.842Z,165.57
2022-11-29T12:28:33.076Z,106.07
2022-11-29T12:31:21.792Z,65.80
2022-11-29T12:33:58.576Z,54.55
2022-11-29T12:36:59.038Z,82.18
2022-11-29T12:39:40.112Z,51.10
2022-11-29T12:42:40.833Z,49.75
2022-11-29T12:45:28.996Z,41.72
2022-11-29T12:48:28.880Z,44.00
2022-11-29T12:51:07.218Z,46.38
2022-11-29T12:54:08.049Z,43.03
2022-11-29T12:57:05.722Z,44.00
2022-11-29T13:00:03.130Z,42.33
2022-11-29T13:02:52.399Z,47.83
2022-11-29T13:05:55.875Z,38.25
2022-11-29T13:08:45.522Z,38.70
2022-11-29T13:11:25.565Z,40.05
2022-11-29T13:17:21.998Z,39.17
2022-11-29T13:19:56.391Z,41.28
2022-11-29T13:22:47.743Z,43.75
2022-11-29T13:25:21.666Z,35.22
2022-11-29T13:28:11.567Z,38.15
2022-11-29T13:30:41.728Z,39.75
2022-11-29T13:33:34.509Z,38.67
2022-11-29T13:36:12.469Z,37.42
2022-11-29T13:38:57.928Z,34.05
2022-11-29T13:41:34.942Z,36.40
2022-11-29T13:44:20.047Z,53.13
2022-11-29T13:47:10.380Z,60.55
2022-11-29T13:49:54.390Z,54.28
2022-11-29T13:52:38.469Z,42.72
2022-11-29T13:55:05.292Z,39.53
2022-11-29T13:58:15.036Z,38.28
2022-11-29T14:00:48.171Z,34.58
2022-11-29T14:03:27.011Z,38.60
2022-11-29T14:06:04.472Z,39.53
2022-11-29T14:09:20.672Z,40.05
2022-11-29T14:12:03.128Z,42.33
2022-11-29T14:14:56.029Z,43.30
2022-11-29T14:17:54.408Z,48.85
2022-11-29T14:20:25.168Z,40.83
2022-11-29T14:23:09.713Z,44.43
2022-11-29T14:25:55.229Z,46.08
2022-11-29T14:28:21.968Z,39.80
2022-11-29T14:30:57.326Z,41.10
2022-11-29T14:33:38.530Z,46.92
2022-11-29T14:36:28.454Z,48.80
2022-11-29T14:39:09.777Z,43.40
2022-11-29T14:42:02.338Z,38.63
2022-11-29T14:44:33.862Z,37.65
2022-11-29T14:47:36.790Z,42.65
2022-11-29T14:50:09.214Z,40.72
2022-11-29T14:52:51.504Z,40.13
2022-11-29T14:55:21.257Z,40.67
2022-11-29T14:57:48.102Z,51.58
2022-11-29T15:00:20.312Z,49.72
2022-11-29T15:02:52.526Z,47.95
2022-11-29T15:05:24.521Z,50.58
2022-11-29T15:08:14.267Z,52.58
2022-11-29T15:10:47.454Z,49.33
2022-11-29T15:13:19.866Z,47.67
2022-11-29T15:16:10.387Z,55.55
2022-11-29T15:19:03.148Z,55.63
2022-11-29T15:21:44.868Z,48.85
2022-11-29T15:24:15.120Z,49.38
2022-11-29T15:27:04.251Z,50.72
2022-11-29T15:29:32.010Z,47.38
2022-11-29T15:32:05.979Z,51.83
2022-11-29T15:34:50.220Z,54.17
2022-11-29T15:37:48.392Z,49.15
2022-11-29T15:40:22.751Z,45.50
2022-11-29T15:43:10.260Z,49.63
2022-11-29T15:45:41.563Z,55.80
2022-11-29T15:48:26.384Z,51.28
2022-11-29T15:51:14.330Z,45.55
2022-11-29T15:53:48.819Z,45.75
2022-11-29T15:56:22.503Z,44.03
2022-11-29T15:58:51.216Z,38.40
2022-11-29T16:01:21.760Z,45.40
2022-11-29T16:03:52.929Z,45.30
2022-11-29T16:06:32.379Z,48.50
2022-11-29T16:09:01.503Z,41.03
2022-11-29T16:11:31.385Z,40.40
2022-11-29T16:14:16.559Z,48.47
2022-11-29T16:16:46.236Z,46.97
2022-11-29T16:19:32.827Z,46.45
2022-11-29T16:22:11.880Z,43.15
2022-11-29T16:24:41.813Z,46.35
2022-11-29T16:27:08.714Z,45.53
2022-11-29T16:29:45.145Z,43.53
2022-11-29T16:32:31.536Z,44.28
2022-11-29T16:35:22.900Z,38.30
2022-11-29T16:37:50.174Z,37.88
2022-11-29T16:40:31.463Z,40.70
2022-11-29T16:43:03.916Z,39.22
2022-11-29T16:45:33.830Z,39.30
2022-11-29T16:48:01.644Z,33.92
2022-11-29T16:50:30.272Z,41.33
2022-11-29T16:53:34.299Z,32.58
2022-11-29T16:56:01.229Z,38.10
2022-11-29T16:58:28.223Z,34.95
2022-11-29T17:00:55.534Z,43.47
2022-11-29T17:03:22.589Z,38.88
2022-11-29T17:05:49.991Z,39.58
2022-11-29T17:08:16.848Z,39.17
2022-11-29T17:10:43.583Z,45.38
2022-11-29T17:13:13.263Z,38.95
2022-11-29T17:15:40.047Z,41.13
2022-11-29T17:18:06.703Z,59.72
2022-11-29T17:20:33.843Z,51.90
2022-11-29T17:23:00.545Z,47.03
2022-11-29T17:25:27.443Z,46.30
2022-11-29T17:27:54.442Z,41.25
2022-11-29T17:30:21.142Z,43.70
2022-11-29T17:32:48.028Z,51.38
2022-11-29T17:35:15.399Z,55.83
2022-11-29T17:37:42.078Z,40.90
2022-11-29T17:40:09.173Z,43.67
2022-11-29T17:42:35.848Z,48.83
2022-11-29T17:45:02.759Z,42.92
2022-11-29T17:47:29.450Z,40.17
2022-11-29T17:49:56.262Z,45.53
2022-11-29T17:52:23.082Z,43.25
2022-11-29T17:54:49.801Z,50.75
2022-11-29T17:57:17.183Z,53.58
2022-11-29T17:59:44.047Z,51.72
2022-11-29T18:02:12.529Z,55.10
2022-11-29T18:04:42.255Z,49.58
2022-11-29T18:07:08.925Z,44.65
2022-11-29T18:09:35.591Z,41.58
2022-11-29T18:12:02.487Z,41.88
2022-11-29T18:14:30.912Z,44.45
2022-11-29T18:16:57.645Z,42.33
2022-11-29T18:19:25.331Z,44.63
2022-11-29T18:21:52.076Z,40.15
2022-11-29T18:24:19.264Z,154.57
2022-11-29T18:26:46.596Z,84.45
2022-11-29T18:29:13.314Z,59.58
2022-11-29T18:31:42.734Z,164.48
2022-11-29T18:34:11.666Z,75.00
2022-11-29T18:36:48.954Z,114.55
2022-11-29T18:39:18.450Z,71.10
2022-11-29T18:41:47.480Z,80.28
2022-11-29T18:44:16.476Z,104.60
2022-11-29T18:46:44.535Z,47.25
2022-11-29T18:49:14.679Z,41.90
2022-11-29T18:51:44.256Z,58.88
2022-11-29T18:54:11.433Z,38.83
2022-11-29T18:56:38.810Z,77.15
2022-11-29T18:59:07.085Z,41.78
2022-11-29T19:01:41.025Z,43.65
2022-11-29T19:04:10.694Z,43.70
2022-11-29T19:06:39.903Z,43.17
2022-11-29T19:09:13.637Z,37.03
2022-11-29T19:11:41.001Z,39.10
2022-11-29T19:14:11.595Z,35.53
2022-11-29T19:16:41.191Z,33.07
2022-11-29T19:19:07.980Z,34.53
2022-11-29T19:21:35.228Z,38.17
2022-11-29T19:24:13.173Z,32.72
2022-11-29T19:26:41.212Z,33.13
2022-11-29T19:29:07.869Z,33.15
2022-11-29T19:31:34.559Z,34.65
2022-11-29T19:34:01.219Z,36.10
2022-11-29T19:36:30.487Z,30.15
2022-11-29T19:38:59.714Z,34.50
2022-11-29T19:41:29.537Z,35.08
2022-11-29T19:43:57.867Z,33.30
2022-11-29T19:46:30.481Z,38.35
2022-11-29T19:48:58.639Z,39.47
2022-11-29T19:51:27.566Z,32.85
2022-11-29T19:53:55.979Z,36.85
2022-11-29T19:56:23.464Z,33.97
2022-11-29T19:58:51.309Z,33.78
2022-11-29T20:01:22.443Z,37.92
2022-11-29T20:03:50.183Z,33.78
2022-11-29T20:06:18.354Z,30.60
2022-11-29T20:08:45.506Z,32.92
2022-11-29T20:11:13.950Z,29.35
2022-11-29T20:13:42.704Z,32.92
2022-11-29T20:16:13.608Z,31.85
2022-11-29T20:18:48.961Z,31.75
2022-11-29T20:21:29.027Z,32.38
2022-11-29T20:24:01.363Z,29.88
2022-11-29T20:26:29.830Z,31.90
2022-11-29T20:28:56.607Z,33.05
2022-11-29T20:31:23.939Z,34.13
2022-11-29T20:33:53.211Z,33.55
2022-11-29T20:36:37.648Z,31.02
2022-11-29T20:39:10.939Z,35.00
2022-11-29T20:41:43.887Z,39.22
2022-11-29T20:44:18.099Z,32.70
2022-11-29T20:46:44.996Z,31.77
2022-11-29T20:49:15.013Z,31.02
2022-11-29T20:51:53.507Z,31.05
2022-11-29T20:54:22.939Z,29.67
2022-11-29T20:56:49.862Z,32.20
2022-11-29T20:59:16.553Z,33.40
2022-11-29T21:01:43.301Z,31.30
2022-11-29T21:04:12.681Z,29.88
2022-11-29T21:06:39.606Z,31.70
2022-11-29T21:09:11.586Z,32.00
2022-11-29T21:11:41.124Z,32.22
2022-11-29T21:14:10.514Z,34.92
2022-11-29T21:16:37.804Z,34.50
2022-11-29T21:19:04.809Z,32.30
2022-11-29T21:21:37.445Z,31.40
2022-11-29T21:24:18.856Z,32.70
2022-11-29T21:26:50.930Z,35.50
2022-11-29T21:29:23.008Z,34.55
2022-11-29T21:31:54.563Z,33.72
2022-11-29T21:34:21.883Z,29.58
2022-11-29T21:36:59.762Z,29.05
2022-11-29T21:39:34.014Z,28.38
2022-11-29T21:42:00.973Z,33.58
2022-11-29T21:44:27.645Z,29.67
2022-11-29T21:46:54.405Z,22.48
2022-11-29T21:49:21.126Z,23.88
2022-11-29T21:51:47.858Z,21.02
2022-11-29T21:54:14.567Z,22.98
2022-11-29T21:56:41.587Z,25.30
2022-11-29T21:59:08.324Z,22.98
2022-11-29T22:01:35.090Z,25.92
2022-11-29T22:04:01.926Z,23.42
2022-11-29T22:06:29.400Z,21.15
2022-11-29T22:08:56.343Z,20.70
2022-11-29T22:11:35.228Z,22.15
2022-11-29T22:14:18.948Z,16.25
2022-11-29T22:16:47.314Z,17.83
2022-11-29T22:19:19.665Z,18.35
2022-11-29T22:21:49.707Z,19.08
2022-11-29T22:24:18.119Z,16.35
2022-11-29T22:26:46.128Z,19.95
2022-11-29T22:29:14.158Z,17.42
2022-11-29T22:31:42.875Z,19.98
2022-11-29T22:34:10.068Z,13.88
2022-11-29T22:36:37.580Z,18.45
2022-11-29T22:39:05.723Z,18.48
2022-11-29T22:41:34.203Z,18.80
2022-11-29T22:44:01.119Z,17.65
2022-11-29T22:46:28.945Z,16.80
2022-11-29T22:48:57.670Z,19.02
2022-11-29T22:51:36.974Z,19.92
2022-11-29T22:54:08.939Z,17.98
2022-11-29T22:56:39.375Z,19.75
2022-11-29T22:59:06.648Z,19.70
2022-11-29T23:01:36.075Z,15.10
2022-11-29T23:04:06.044Z,17.33
2022-11-29T23:06:38.575Z,16.23
2022-11-29T23:09:12.130Z,17.55
2022-11-29T23:11:38.919Z,19.25
2022-11-29T23:14:05.618Z,17.48
2022-11-29T23:16:33.099Z,19.73
2022-11-29T23:19:01.109Z,16.77
2022-11-29T23:21:35.879Z,19.02
2022-11-29T23:24:03.236Z,17.65
2022-11-29T23:26:38.931Z,20.38
2022-11-29T23:29:17.763Z,17.10
2022-11-29T23:31:44.983Z,19.05
2022-11-29T23:34:12.069Z,15.82
2022-11-29T23:36:38.928Z,24.42
2022-11-29T23:39:06.718Z,22.40
2022-11-29T23:41:34.781Z,20.77
2022-11-29T23:44:04.279Z,21.52
2022-11-29T23:46:31.308Z,18.85
2022-11-29T23:48:58.138Z,19.25
2022-11-29T23:51:24.811Z,18.52
2022-11-29T23:53:53.162Z,18.38
2022-11-29T23:56:21.240Z,20.50
2022-11-29T23:58:48.480Z,20.60
